Biotrans — JWPN — position and weather

sailwx.info

Track history (hours):
 
Tides and Currents Weather Stations Pressure Air Temp Water Temp Dewpoint Dewpoint Depression Visibility Wind Speed Wind Dir Waves Ship Positions

Biotrans

Last reported at 2016-May-31 22:33 UTC. Time now 2016-Jun-01 07:31 UTC.
Position N 69°07' E 017°37'.

Length 55 m; draft 5.5 m.

Type: Cargo ship. MMSI: 259260000.

Date/timePositionNaut miles runAvg speedWind from/ knotsBaromVisibWave heightAir tempDewpointWater temp
2016-May-31 22:33N 69°07' E 017°37'9 8.7
2016-May-31 21:33N 69°11' E 017°59'  
2016-May-26 16:33N 69°17' E 017°58'7 7.5
2016-May-26 15:33N 69°10' E 017°54'9 9.0
2016-May-26 14:33N 69°06' E 017°31'105 5.0
2016-May-25 17:20N 67°44' E 014°31'7 8.7
2016-May-25 16:29N 67°37' E 014°30'8 8.5
2016-May-25 15:34N 67°29' E 014°28'9 8.7
2016-May-25 14:33N 67°20' E 014°21'9 9.2
2016-May-25 13:33N 67°14' E 014°05'9 9.2
2016-May-25 12:33N 67°08' E 013°46'36 8.8
2016-May-25 08:30N 66°40' E 012°50'8 8.6
2016-May-25 07:31N 66°32' E 012°45'8 8.5
2016-May-25 06:33N 66°23' E 012°46'16 7.6
2016-May-25 04:24N 66°07' E 012°45'49 7.1
2016-May-24 21:32N 65°21' E 012°03'9 8.8
2016-May-24 20:33N 65°14' E 011°55'9 8.7
2016-May-24 19:33N 65°05' E 011°47'9 8.7
2016-May-24 18:33N 64°59' E 011°35'9 8.8
2016-May-24 17:33N 64°53' E 011°19'2 2.3
2016-May-24 16:33N 64°52' E 011°14'0 0.0
2016-May-24 15:33N 64°52' E 011°14'0 0.0
2016-May-24 14:34N 64°52' E 011°14'0 0.0
2016-May-24 13:33N 64°52' E 011°14'5 4.8
2016-May-24 12:33N 64°48' E 011°07'8 0.2
2016-May-22 23:32N 64°47' E 010°49'6 5.8
2016-May-22 22:33N 64°48' E 011°02'5 4.7
2016-May-22 21:33N 64°50' E 011°11'8 7.8
2016-May-22 20:33N 64°55' E 011°25'9 8.8
2016-May-22 19:33N 65°01' E 011°41'9 8.8
2016-May-22 18:33N 65°09' E 011°50'66 4.6
2016-May-22 04:23N 66°13' E 012°26'5 6.5
2016-May-22 03:33N 66°13' E 012°39'  
Track history (hours):
 
Tides and Currents Weather Stations Pressure Air Temp Water Temp Dewpoint Dewpoint Depression Visibility Wind Speed Wind Dir Waves Ship Positions

Biotrans

Last reported at 2016-May-31 22:33 UTC. Time now 2016-Jun-01 07:31 UTC.
Position N 69°07' E 017°37'.

Length 55 m; draft 5.5 m.

Type: Cargo ship. MMSI: 259260000.

Date/timePositionNaut miles runAvg speedWind from/ knotsBaromVisibWave heightAir tempDewpointWater temp
2016-May-31 22:33N 69°07' E 017°37'9 8.7
2016-May-31 21:33N 69°11' E 017°59'  
2016-May-26 16:33N 69°17' E 017°58'7 7.5
2016-May-26 15:33N 69°10' E 017°54'9 9.0
2016-May-26 14:33N 69°06' E 017°31'105 5.0
2016-May-25 17:20N 67°44' E 014°31'7 8.7
2016-May-25 16:29N 67°37' E 014°30'8 8.5
2016-May-25 15:34N 67°29' E 014°28'9 8.7
2016-May-25 14:33N 67°20' E 014°21'9 9.2
2016-May-25 13:33N 67°14' E 014°05'9 9.2
2016-May-25 12:33N 67°08' E 013°46'36 8.8
2016-May-25 08:30N 66°40' E 012°50'8 8.6
2016-May-25 07:31N 66°32' E 012°45'8 8.5
2016-May-25 06:33N 66°23' E 012°46'16 7.6
2016-May-25 04:24N 66°07' E 012°45'49 7.1
2016-May-24 21:32N 65°21' E 012°03'9 8.8
2016-May-24 20:33N 65°14' E 011°55'9 8.7
2016-May-24 19:33N 65°05' E 011°47'9 8.7
2016-May-24 18:33N 64°59' E 011°35'9 8.8
2016-May-24 17:33N 64°53' E 011°19'2 2.3
2016-May-24 16:33N 64°52' E 011°14'0 0.0
2016-May-24 15:33N 64°52' E 011°14'0 0.0
2016-May-24 14:34N 64°52' E 011°14'0 0.0
2016-May-24 13:33N 64°52' E 011°14'5 4.8
2016-May-24 12:33N 64°48' E 011°07'8 0.2
2016-May-22 23:32N 64°47' E 010°49'6 5.8
2016-May-22 22:33N 64°48' E 011°02'5 4.7
2016-May-22 21:33N 64°50' E 011°11'8 7.8
2016-May-22 20:33N 64°55' E 011°25'9 8.8
2016-May-22 19:33N 65°01' E 011°41'9 8.8
2016-May-22 18:33N 65°09' E 011°50'66 4.6
2016-May-22 04:23N 66°13' E 012°26'5 6.5
2016-May-22 03:33N 66°13' E 012°39'  

Dump ship's entire track history